FABL/BFN METAR and TAF weather

Enter ICAO airport designator
Station Type Date Time Source
FABL METAR 2021/07/29 02:00 UTC NOAA

FABL 290200Z AUTO 20005KT 9999 ///////// M01/M05 Q1025


Station Type Date Time Source
FABL Decoded METAR 2021/07/29 02:00 UTC NOAA

Bloemfontein, Bloemfontein Airport, South Africa (FABL) 29-06S 026-18E 1400M
Jul 28, 2021 - 10:00 PM EDT / 2021.07.29 0200 UTC
Wind: from the SSW (200 degrees) at 6 MPH (5 KT):0
Visibility: greater than 7 mile(s):0
Temperature: 30 F (-1 C)
Windchill: 23 F (-5 C):1
Dew Point: 23 F (-5 C)
Relative Humidity: 74%
Pressure (altimeter): 30.27 in. Hg (1025 hPa)
ob: FABL 290200Z AUTO 20005KT 9999 ///////// M01/M05 Q1025
cycle: 2

Station Type Date Time Source
FABL TAF 2021/07/28 18:49 UTC NOAA

TAF FABL 281805Z 2818/2918 VRB03KT CAVOK TX20/2912Z TNM01/2904Z

Example: see airport list